Ridgway, Illinois
Current Conditions -  °F | °C
As of 12:55 PM on Thursday 23 Oct 2014 (Local Time) from KHSB Reporting Station
Clear Clear  
Wind Chill: 60°   Ceiling: Unl
Heat Index: 60°   Visibility: 10mi
Dew Point: 42°   Wind: 3mph
Humidity: 52%   Direction: 110°ESE
Pressure: 30.21"   Gusts: NA
Location:  37.8°N, 88.26°W
Report Text: KHSB 231755Z AUTO 11003KT 10SM CLR 15/06 A3021 RMK AO2 T01540057 10154 20002
Loading
Personal Weather Stations






























Interactive Weather Map
Tropical Storm Tracking
New forecast layout! Learn more

10-Day Weather Forecast

Advertisements
Track Severe Weather on mobile